Highland Park, California
Current Conditions -  °F | °C
As of 5:47 PM on Wednesday 17 Dec 2014 (Local Time) from KCQT Reporting Station
Overcast Overcast  
Wind Chill: 59°   Ceiling: 10000
Heat Index: 59°   Visibility: 10mi
Dew Point: 43°   Wind: 0mph
Humidity: 55%   Direction: NA
Pressure: 30.06"   Gusts: NA
Location:  34.1146°N, 118.191°W
Report Text: KCQT 180147Z AUTO 00000KT 10SM OVC100 15/06 A3006 RMK AO2 SLP180 T01500061
Loading
Personal Weather Stations






























Interactive Weather Map New forecast layout! Learn more

10-Day Weather Forecast

Advertisements
Track Severe Weather on mobile